sensor_id;sensor_type;location;lat;lon;timestamp;P1;durP1;ratioP1;P2;durP2;ratioP2
18072;SDS011;9161;47.348;9.648;2023-07-29T00:03:36;5.40;;;3.10;;
18072;SDS011;9161;47.348;9.648;2023-07-29T00:08:38;5.03;;;3.33;;
18072;SDS011;9161;47.348;9.648;2023-07-29T00:13:40;5.77;;;3.27;;
18072;SDS011;9161;47.348;9.648;2023-07-29T00:18:43;8.07;;;3.43;;
18072;SDS011;9161;47.348;9.648;2023-07-29T00:23:45;4.17;;;2.93;;
18072;SDS011;9161;47.348;9.648;2023-07-29T00:28:47;5.13;;;2.30;;
18072;SDS011;9161;47.348;9.648;2023-07-29T00:33:51;4.17;;;2.23;;
18072;SDS011;9161;47.348;9.648;2023-07-29T00:38:53;5.17;;;2.17;;
18072;SDS011;9161;47.348;9.648;2023-07-29T00:43:57;7.07;;;3.07;;
18072;SDS011;9161;47.348;9.648;2023-07-29T00:49:00;6.03;;;3.40;;
18072;SDS011;9161;47.348;9.648;2023-07-29T00:54:03;5.03;;;3.90;;
18072;SDS011;9161;47.348;9.648;2023-07-29T00:59:05;8.63;;;3.87;;
18072;SDS011;9161;47.348;9.648;2023-07-29T01:04:08;6.37;;;4.50;;
18072;SDS011;9161;47.348;9.648;2023-07-29T01:09:12;6.87;;;4.07;;
18072;SDS011;9161;47.348;9.648;2023-07-29T01:14:26;5.73;;;3.90;;
18072;SDS011;9161;47.348;9.648;2023-07-29T01:19:43;4.03;;;2.50;;
18072;SDS011;9161;47.348;9.648;2023-07-29T01:25:00;5.03;;;2.60;;
18072;SDS011;9161;47.348;9.648;2023-07-29T01:30:03;2.87;;;1.87;;
18072;SDS011;9161;47.348;9.648;2023-07-29T01:35:10;3.60;;;2.13;;
18072;SDS011;9161;47.348;9.648;2023-07-29T01:40:21;4.03;;;2.00;;
18072;SDS011;9161;47.348;9.648;2023-07-29T01:45:25;3.47;;;2.03;;
18072;SDS011;9161;47.348;9.648;2023-07-29T01:50:27;4.97;;;1.93;;
18072;SDS011;9161;47.348;9.648;2023-07-29T01:55:31;3.80;;;1.97;;
18072;SDS011;9161;47.348;9.648;2023-07-29T02:00:33;2.70;;;1.70;;
18072;SDS011;9161;47.348;9.648;2023-07-29T02:05:35;2.87;;;2.00;;
18072;SDS011;9161;47.348;9.648;2023-07-29T02:10:38;6.83;;;2.60;;
18072;SDS011;9161;47.348;9.648;2023-07-29T02:15:40;3.10;;;2.10;;
18072;SDS011;9161;47.348;9.648;2023-07-29T02:20:42;3.13;;;2.20;;
18072;SDS011;9161;47.348;9.648;2023-07-29T02:25:51;3.10;;;2.27;;
18072;SDS011;9161;47.348;9.648;2023-07-29T02:36:11;5.57;;;2.30;;
18072;SDS011;9161;47.348;9.648;2023-07-29T02:41:15;3.07;;;2.10;;
18072;SDS011;9161;47.348;9.648;2023-07-29T02:46:17;3.17;;;2.13;;
18072;SDS011;9161;47.348;9.648;2023-07-29T02:51:19;4.03;;;2.43;;
18072;SDS011;9161;47.348;9.648;2023-07-29T02:56:22;4.33;;;2.70;;
18072;SDS011;9161;47.348;9.648;2023-07-29T03:01:25;4.30;;;2.37;;
18072;SDS011;9161;47.348;9.648;2023-07-29T03:06:26;3.30;;;2.23;;
18072;SDS011;9161;47.348;9.648;2023-07-29T03:11:30;5.43;;;2.40;;
18072;SDS011;9161;47.348;9.648;2023-07-29T03:16:32;4.37;;;2.30;;
18072;SDS011;9161;47.348;9.648;2023-07-29T03:21:34;3.33;;;2.60;;
18072;SDS011;9161;47.348;9.648;2023-07-29T03:26:39;5.67;;;2.63;;
18072;SDS011;9161;47.348;9.648;2023-07-29T03:31:45;6.13;;;2.37;;
18072;SDS011;9161;47.348;9.648;2023-07-29T03:36:47;5.17;;;2.27;;
18072;SDS011;9161;47.348;9.648;2023-07-29T03:41:52;3.73;;;2.40;;
18072;SDS011;9161;47.348;9.648;2023-07-29T03:46:54;4.10;;;2.50;;
18072;SDS011;9161;47.348;9.648;2023-07-29T03:51:56;6.60;;;2.67;;
18072;SDS011;9161;47.348;9.648;2023-07-29T03:56:59;6.00;;;2.90;;
18072;SDS011;9161;47.348;9.648;2023-07-29T04:02:01;6.47;;;2.60;;
18072;SDS011;9161;47.348;9.648;2023-07-29T04:07:04;4.60;;;2.90;;
18072;SDS011;9161;47.348;9.648;2023-07-29T04:12:08;5.83;;;2.93;;
18072;SDS011;9161;47.348;9.648;2023-07-29T04:17:11;5.27;;;2.63;;
18072;SDS011;9161;47.348;9.648;2023-07-29T04:22:14;5.13;;;2.70;;
18072;SDS011;9161;47.348;9.648;2023-07-29T04:27:19;5.13;;;3.73;;
18072;SDS011;9161;47.348;9.648;2023-07-29T04:32:21;5.47;;;3.43;;
18072;SDS011;9161;47.348;9.648;2023-07-29T04:37:23;5.00;;;3.60;;
18072;SDS011;9161;47.348;9.648;2023-07-29T04:42:27;5.33;;;2.87;;
18072;SDS011;9161;47.348;9.648;2023-07-29T04:47:29;5.70;;;3.00;;
18072;SDS011;9161;47.348;9.648;2023-07-29T04:52:31;8.03;;;3.20;;
18072;SDS011;9161;47.348;9.648;2023-07-29T04:57:35;6.43;;;3.03;;
18072;SDS011;9161;47.348;9.648;2023-07-29T05:02:37;9.23;;;3.60;;
18072;SDS011;9161;47.348;9.648;2023-07-29T05:07:39;5.27;;;3.30;;
18072;SDS011;9161;47.348;9.648;2023-07-29T05:12:42;5.40;;;3.73;;
18072;SDS011;9161;47.348;9.648;2023-07-29T05:17:44;6.43;;;3.40;;
18072;SDS011;9161;47.348;9.648;2023-07-29T05:22:46;6.83;;;3.63;;
18072;SDS011;9161;47.348;9.648;2023-07-29T05:27:49;5.17;;;3.10;;
18072;SDS011;9161;47.348;9.648;2023-07-29T05:32:51;6.80;;;3.40;;
18072;SDS011;9161;47.348;9.648;2023-07-29T05:37:54;7.07;;;3.53;;
18072;SDS011;9161;47.348;9.648;2023-07-29T05:42:57;5.97;;;3.40;;
18072;SDS011;9161;47.348;9.648;2023-07-29T05:47:59;5.97;;;3.33;;
18072;SDS011;9161;47.348;9.648;2023-07-29T05:53:01;6.90;;;4.00;;
18072;SDS011;9161;47.348;9.648;2023-07-29T05:58:05;6.03;;;3.43;;
18072;SDS011;9161;47.348;9.648;2023-07-29T06:03:07;5.33;;;3.30;;
18072;SDS011;9161;47.348;9.648;2023-07-29T06:08:09;3.87;;;3.20;;
18072;SDS011;9161;47.348;9.648;2023-07-29T06:13:13;6.10;;;3.20;;
18072;SDS011;9161;47.348;9.648;2023-07-29T06:18:15;6.30;;;3.13;;
18072;SDS011;9161;47.348;9.648;2023-07-29T06:23:17;4.68;;;2.90;;
18072;SDS011;9161;47.348;9.648;2023-07-29T06:28:20;3.93;;;2.90;;
18072;SDS011;9161;47.348;9.648;2023-07-29T06:33:22;5.03;;;2.77;;
18072;SDS011;9161;47.348;9.648;2023-07-29T06:38:24;6.03;;;2.67;;
18072;SDS011;9161;47.348;9.648;2023-07-29T06:43:28;4.80;;;3.00;;
18072;SDS011;9161;47.348;9.648;2023-07-29T06:48:30;4.83;;;2.90;;
18072;SDS011;9161;47.348;9.648;2023-07-29T06:53:32;6.53;;;2.90;;
18072;SDS011;9161;47.348;9.648;2023-07-29T06:58:35;4.40;;;3.23;;
18072;SDS011;9161;47.348;9.648;2023-07-29T07:03:37;6.23;;;2.97;;
18072;SDS011;9161;47.348;9.648;2023-07-29T07:08:40;4.43;;;2.70;;
18072;SDS011;9161;47.348;9.648;2023-07-29T07:13:44;6.30;;;3.53;;
18072;SDS011;9161;47.348;9.648;2023-07-29T07:18:46;7.87;;;3.07;;
18072;SDS011;9161;47.348;9.648;2023-07-29T07:23:49;4.18;;;2.97;;
18072;SDS011;9161;47.348;9.648;2023-07-29T07:28:52;7.63;;;3.38;;
18072;SDS011;9161;47.348;9.648;2023-07-29T07:33:54;5.75;;;3.33;;
18072;SDS011;9161;47.348;9.648;2023-07-29T07:38:57;4.95;;;2.80;;
18072;SDS011;9161;47.348;9.648;2023-07-29T07:44:00;5.03;;;2.55;;
18072;SDS011;9161;47.348;9.648;2023-07-29T07:49:03;4.13;;;2.70;;
18072;SDS011;9161;47.348;9.648;2023-07-29T07:54:05;4.15;;;2.75;;
18072;SDS011;9161;47.348;9.648;2023-07-29T07:59:08;4.97;;;3.13;;
18072;SDS011;9161;47.348;9.648;2023-07-29T08:04:10;3.95;;;2.80;;
18072;SDS011;9161;47.348;9.648;2023-07-29T08:09:12;4.78;;;2.97;;
18072;SDS011;9161;47.348;9.648;2023-07-29T08:14:16;4.80;;;2.83;;
18072;SDS011;9161;47.348;9.648;2023-07-29T08:19:18;4.32;;;2.53;;
18072;SDS011;9161;47.348;9.648;2023-07-29T08:24:21;5.22;;;2.80;;
18072;SDS011;9161;47.348;9.648;2023-07-29T08:29:25;4.15;;;3.10;;
18072;SDS011;9161;47.348;9.648;2023-07-29T08:34:27;5.55;;;3.20;;
18072;SDS011;9161;47.348;9.648;2023-07-29T08:39:30;4.70;;;3.25;;
18072;SDS011;9161;47.348;9.648;2023-07-29T08:44:39;3.33;;;2.25;;
18072;SDS011;9161;47.348;9.648;2023-07-29T08:49:44;11.68;;;8.00;;
18072;SDS011;9161;47.348;9.648;2023-07-29T08:54:47;4.32;;;2.90;;
18072;SDS011;9161;47.348;9.648;2023-07-29T08:59:51;4.25;;;3.03;;
18072;SDS011;9161;47.348;9.648;2023-07-29T09:04:53;6.75;;;2.80;;
18072;SDS011;9161;47.348;9.648;2023-07-29T09:09:56;4.80;;;2.88;;
18072;SDS011;9161;47.348;9.648;2023-07-29T09:14:59;5.05;;;3.10;;
18072;SDS011;9161;47.348;9.648;2023-07-29T09:20:02;5.88;;;3.20;;
18072;SDS011;9161;47.348;9.648;2023-07-29T09:25:08;7.13;;;3.75;;
18072;SDS011;9161;47.348;9.648;2023-07-29T09:30:15;5.10;;;3.30;;
18072;SDS011;9161;47.348;9.648;2023-07-29T09:35:18;6.05;;;3.03;;
18072;SDS011;9161;47.348;9.648;2023-07-29T09:40:20;6.10;;;3.50;;
18072;SDS011;9161;47.348;9.648;2023-07-29T09:45:25;3.85;;;3.10;;
18072;SDS011;9161;47.348;9.648;2023-07-29T09:50:28;5.25;;;3.35;;
18072;SDS011;9161;47.348;9.648;2023-07-29T09:55:33;5.90;;;3.03;;
18072;SDS011;9161;47.348;9.648;2023-07-29T10:00:37;7.20;;;3.53;;
18072;SDS011;9161;47.348;9.648;2023-07-29T10:05:40;5.22;;;3.30;;
18072;SDS011;9161;47.348;9.648;2023-07-29T10:10:43;5.40;;;3.10;;
18072;SDS011;9161;47.348;9.648;2023-07-29T10:15:47;6.18;;;2.92;;
18072;SDS011;9161;47.348;9.648;2023-07-29T10:20:51;5.32;;;3.08;;
18072;SDS011;9161;47.348;9.648;2023-07-29T10:25:57;4.82;;;3.63;;
18072;SDS011;9161;47.348;9.648;2023-07-29T10:31:05;5.95;;;3.58;;
18072;SDS011;9161;47.348;9.648;2023-07-29T10:36:08;4.13;;;3.17;;
18072;SDS011;9161;47.348;9.648;2023-07-29T10:41:11;3.63;;;3.00;;
18072;SDS011;9161;47.348;9.648;2023-07-29T10:46:19;5.25;;;3.40;;
18072;SDS011;9161;47.348;9.648;2023-07-29T10:51:26;7.50;;;3.30;;
18072;SDS011;9161;47.348;9.648;2023-07-29T10:56:34;3.97;;;2.80;;
18072;SDS011;9161;47.348;9.648;2023-07-29T11:01:40;5.18;;;3.15;;
18072;SDS011;9161;47.348;9.648;2023-07-29T11:12:42;4.47;;;3.33;;
18072;SDS011;9161;47.348;9.648;2023-07-29T11:17:53;6.65;;;3.10;;
18072;SDS011;9161;47.348;9.648;2023-07-29T11:22:57;4.47;;;2.97;;
18072;SDS011;9161;47.348;9.648;2023-07-29T11:28:00;4.85;;;3.10;;
18072;SDS011;9161;47.348;9.648;2023-07-29T11:33:07;5.28;;;3.10;;
18072;SDS011;9161;47.348;9.648;2023-07-29T11:38:14;5.78;;;3.30;;
18072;SDS011;9161;47.348;9.648;2023-07-29T11:43:17;3.75;;;3.03;;
18072;SDS011;9161;47.348;9.648;2023-07-29T11:48:31;3.17;;;2.80;;
18072;SDS011;9161;47.348;9.648;2023-07-29T11:53:34;4.50;;;3.00;;
18072;SDS011;9161;47.348;9.648;2023-07-29T11:58:37;4.82;;;3.22;;
18072;SDS011;9161;47.348;9.648;2023-07-29T12:03:41;5.13;;;3.10;;
18072;SDS011;9161;47.348;9.648;2023-07-29T12:08:44;6.75;;;3.10;;
18072;SDS011;9161;47.348;9.648;2023-07-29T12:13:46;4.82;;;3.33;;
18072;SDS011;9161;47.348;9.648;2023-07-29T12:18:51;4.93;;;3.50;;
18072;SDS011;9161;47.348;9.648;2023-07-29T12:23:53;7.20;;;3.28;;
18072;SDS011;9161;47.348;9.648;2023-07-29T12:28:59;6.82;;;3.50;;
18072;SDS011;9161;47.348;9.648;2023-07-29T12:34:18;6.13;;;3.55;;
18072;SDS011;9161;47.348;9.648;2023-07-29T12:39:22;7.43;;;3.95;;
18072;SDS011;9161;47.348;9.648;2023-07-29T12:44:29;7.95;;;5.28;;
18072;SDS011;9161;47.348;9.648;2023-07-29T12:49:33;7.65;;;4.38;;
18072;SDS011;9161;47.348;9.648;2023-07-29T12:54:36;7.13;;;4.60;;
18072;SDS011;9161;47.348;9.648;2023-07-29T12:59:40;8.32;;;4.60;;
18072;SDS011;9161;47.348;9.648;2023-07-29T13:04:44;8.88;;;3.97;;
18072;SDS011;9161;47.348;9.648;2023-07-29T13:09:46;11.07;;;4.13;;
18072;SDS011;9161;47.348;9.648;2023-07-29T13:14:49;7.93;;;3.80;;
18072;SDS011;9161;47.348;9.648;2023-07-29T13:19:53;6.75;;;3.50;;
18072;SDS011;9161;47.348;9.648;2023-07-29T13:24:56;4.80;;;3.05;;
18072;SDS011;9161;47.348;9.648;2023-07-29T13:29:59;8.88;;;4.93;;
18072;SDS011;9161;47.348;9.648;2023-07-29T13:35:04;4.63;;;3.10;;
18072;SDS011;9161;47.348;9.648;2023-07-29T13:40:07;6.45;;;3.30;;
18072;SDS011;9161;47.348;9.648;2023-07-29T13:45:10;7.20;;;3.63;;
18072;SDS011;9161;47.348;9.648;2023-07-29T13:50:14;6.30;;;3.70;;
18072;SDS011;9161;47.348;9.648;2023-07-29T13:55:17;7.63;;;3.55;;
18072;SDS011;9161;47.348;9.648;2023-07-29T14:00:19;11.32;;;5.40;;
18072;SDS011;9161;47.348;9.648;2023-07-29T14:05:23;11.32;;;4.20;;
18072;SDS011;9161;47.348;9.648;2023-07-29T14:10:26;9.80;;;3.90;;
18072;SDS011;9161;47.348;9.648;2023-07-29T14:15:28;8.15;;;3.72;;
18072;SDS011;9161;47.348;9.648;2023-07-29T14:20:34;5.47;;;3.27;;
18072;SDS011;9161;47.348;9.648;2023-07-29T14:25:36;5.17;;;2.43;;
18072;SDS011;9161;47.348;9.648;2023-07-29T14:30:38;5.70;;;2.80;;
18072;SDS011;9161;47.348;9.648;2023-07-29T14:35:43;7.00;;;3.67;;
18072;SDS011;9161;47.348;9.648;2023-07-29T14:40:47;7.17;;;3.63;;
18072;SDS011;9161;47.348;9.648;2023-07-29T14:45:50;8.17;;;3.80;;
18072;SDS011;9161;47.348;9.648;2023-07-29T14:50:54;5.43;;;2.97;;
18072;SDS011;9161;47.348;9.648;2023-07-29T14:55:56;5.10;;;2.93;;
18072;SDS011;9161;47.348;9.648;2023-07-29T15:00:58;5.37;;;3.20;;
18072;SDS011;9161;47.348;9.648;2023-07-29T15:06:02;4.43;;;2.53;;
18072;SDS011;9161;47.348;9.648;2023-07-29T15:11:04;5.63;;;3.00;;
18072;SDS011;9161;47.348;9.648;2023-07-29T15:16:07;7.27;;;3.30;;
18072;SDS011;9161;47.348;9.648;2023-07-29T15:21:10;5.50;;;3.27;;
18072;SDS011;9161;47.348;9.648;2023-07-29T15:26:13;4.87;;;2.80;;
18072;SDS011;9161;47.348;9.648;2023-07-29T15:31:16;6.23;;;3.50;;
18072;SDS011;9161;47.348;9.648;2023-07-29T15:36:21;4.83;;;3.53;;
18072;SDS011;9161;47.348;9.648;2023-07-29T15:41:23;6.07;;;3.53;;
18072;SDS011;9161;47.348;9.648;2023-07-29T15:46:26;6.20;;;3.00;;
18072;SDS011;9161;47.348;9.648;2023-07-29T15:51:30;8.27;;;3.57;;
18072;SDS011;9161;47.348;9.648;2023-07-29T15:56:33;5.10;;;3.47;;
18072;SDS011;9161;47.348;9.648;2023-07-29T16:01:39;4.73;;;3.20;;
18072;SDS011;9161;47.348;9.648;2023-07-29T16:06:45;6.27;;;3.33;;
18072;SDS011;9161;47.348;9.648;2023-07-29T16:11:47;6.67;;;3.73;;
18072;SDS011;9161;47.348;9.648;2023-07-29T16:16:50;5.47;;;4.00;;
18072;SDS011;9161;47.348;9.648;2023-07-29T16:21:54;5.07;;;3.20;;
18072;SDS011;9161;47.348;9.648;2023-07-29T16:26:57;5.70;;;3.60;;
18072;SDS011;9161;47.348;9.648;2023-07-29T16:32:00;4.80;;;3.00;;
18072;SDS011;9161;47.348;9.648;2023-07-29T16:37:05;7.73;;;4.17;;
18072;SDS011;9161;47.348;9.648;2023-07-29T16:42:08;5.67;;;3.13;;
18072;SDS011;9161;47.348;9.648;2023-07-29T16:47:11;7.73;;;4.00;;
18072;SDS011;9161;47.348;9.648;2023-07-29T16:52:17;8.80;;;3.80;;
18072;SDS011;9161;47.348;9.648;2023-07-29T16:57:20;5.23;;;3.17;;
18072;SDS011;9161;47.348;9.648;2023-07-29T17:02:22;5.80;;;3.70;;
18072;SDS011;9161;47.348;9.648;2023-07-29T17:07:27;5.10;;;3.53;;
18072;SDS011;9161;47.348;9.648;2023-07-29T17:12:29;5.97;;;3.30;;
18072;SDS011;9161;47.348;9.648;2023-07-29T17:17:32;4.47;;;2.80;;
18072;SDS011;9161;47.348;9.648;2023-07-29T17:22:37;3.63;;;2.73;;
18072;SDS011;9161;47.348;9.648;2023-07-29T17:27:41;5.23;;;2.80;;
18072;SDS011;9161;47.348;9.648;2023-07-29T17:32:47;6.43;;;3.47;;
18072;SDS011;9161;47.348;9.648;2023-07-29T17:37:53;7.03;;;3.60;;
18072;SDS011;9161;47.348;9.648;2023-07-29T17:42:56;4.63;;;3.03;;
18072;SDS011;9161;47.348;9.648;2023-07-29T17:47:59;5.50;;;3.87;;
18072;SDS011;9161;47.348;9.648;2023-07-29T17:53:04;4.60;;;3.37;;
18072;SDS011;9161;47.348;9.648;2023-07-29T17:58:06;8.80;;;3.40;;
18072;SDS011;9161;47.348;9.648;2023-07-29T18:03:09;4.47;;;3.17;;
18072;SDS011;9161;47.348;9.648;2023-07-29T18:08:15;4.40;;;2.60;;
18072;SDS011;9161;47.348;9.648;2023-07-29T18:13:18;5.27;;;2.33;;
18072;SDS011;9161;47.348;9.648;2023-07-29T18:18:21;3.30;;;2.37;;
18072;SDS011;9161;47.348;9.648;2023-07-29T18:23:26;6.17;;;3.20;;
18072;SDS011;9161;47.348;9.648;2023-07-29T18:28:29;6.53;;;3.53;;
18072;SDS011;9161;47.348;9.648;2023-07-29T18:33:32;3.63;;;2.70;;
18072;SDS011;9161;47.348;9.648;2023-07-29T18:38:37;5.13;;;2.20;;
18072;SDS011;9161;47.348;9.648;2023-07-29T18:43:40;5.77;;;2.70;;
18072;SDS011;9161;47.348;9.648;2023-07-29T18:48:43;4.33;;;2.90;;
18072;SDS011;9161;47.348;9.648;2023-07-29T18:53:50;4.90;;;2.23;;
18072;SDS011;9161;47.348;9.648;2023-07-29T18:58:55;5.17;;;2.73;;
18072;SDS011;9161;47.348;9.648;2023-07-29T19:03:59;4.73;;;2.80;;
18072;SDS011;9161;47.348;9.648;2023-07-29T19:09:06;4.77;;;2.53;;
18072;SDS011;9161;47.348;9.648;2023-07-29T19:14:11;3.63;;;2.17;;
18072;SDS011;9161;47.348;9.648;2023-07-29T19:19:16;3.67;;;2.33;;
18072;SDS011;9161;47.348;9.648;2023-07-29T19:24:22;5.83;;;2.30;;
18072;SDS011;9161;47.348;9.648;2023-07-29T19:29:27;5.30;;;2.60;;
18072;SDS011;9161;47.348;9.648;2023-07-29T19:34:31;4.30;;;2.37;;
18072;SDS011;9161;47.348;9.648;2023-07-29T19:45:47;3.20;;;2.07;;
18072;SDS011;9161;47.348;9.648;2023-07-29T19:51:24;3.70;;;2.53;;
18072;SDS011;9161;47.348;9.648;2023-07-29T19:56:34;7.13;;;4.83;;
18072;SDS011;9161;47.348;9.648;2023-07-29T20:01:39;2.70;;;2.10;;
18072;SDS011;9161;47.348;9.648;2023-07-29T20:06:44;3.07;;;2.30;;
18072;SDS011;9161;47.348;9.648;2023-07-29T20:11:52;3.87;;;1.97;;
18072;SDS011;9161;47.348;9.648;2023-07-29T20:17:02;6.07;;;3.20;;
18072;SDS011;9161;47.348;9.648;2023-07-29T20:22:22;3.17;;;2.30;;
18072;SDS011;9161;47.348;9.648;2023-07-29T20:27:31;4.67;;;1.90;;
18072;SDS011;9161;47.348;9.648;2023-07-29T20:33:00;3.23;;;1.70;;
18072;SDS011;9161;47.348;9.648;2023-07-29T20:38:10;1.90;;;1.43;;
18072;SDS011;9161;47.348;9.648;2023-07-29T20:43:18;2.87;;;1.47;;
18072;SDS011;9161;47.348;9.648;2023-07-29T20:48:23;2.93;;;1.40;;
18072;SDS011;9161;47.348;9.648;2023-07-29T20:53:42;3.27;;;1.50;;
18072;SDS011;9161;47.348;9.648;2023-07-29T20:58:49;7.20;;;1.50;;
18072;SDS011;9161;47.348;9.648;2023-07-29T21:03:56;1.90;;;1.20;;
18072;SDS011;9161;47.348;9.648;2023-07-29T21:09:01;3.03;;;1.63;;
18072;SDS011;9161;47.348;9.648;2023-07-29T21:14:05;2.73;;;1.53;;
18072;SDS011;9161;47.348;9.648;2023-07-29T21:19:10;2.17;;;1.40;;
18072;SDS011;9161;47.348;9.648;2023-07-29T21:24:13;2.93;;;1.30;;
18072;SDS011;9161;47.348;9.648;2023-07-29T21:29:16;2.17;;;1.07;;
18072;SDS011;9161;47.348;9.648;2023-07-29T21:34:19;2.20;;;1.13;;
18072;SDS011;9161;47.348;9.648;2023-07-29T21:39:25;2.67;;;1.67;;
18072;SDS011;9161;47.348;9.648;2023-07-29T21:44:35;3.00;;;2.07;;
18072;SDS011;9161;47.348;9.648;2023-07-29T21:49:47;3.23;;;1.70;;
18072;SDS011;9161;47.348;9.648;2023-07-29T21:54:55;2.20;;;1.57;;
18072;SDS011;9161;47.348;9.648;2023-07-29T22:05:10;2.93;;;1.27;;
18072;SDS011;9161;47.348;9.648;2023-07-29T22:10:12;2.50;;;1.17;;
18072;SDS011;9161;47.348;9.648;2023-07-29T22:15:15;3.10;;;1.50;;
18072;SDS011;9161;47.348;9.648;2023-07-29T22:20:20;2.33;;;0.90;;
18072;SDS011;9161;47.348;9.648;2023-07-29T22:25:23;3.30;;;1.17;;
18072;SDS011;9161;47.348;9.648;2023-07-29T22:30:25;1.77;;;1.33;;
18072;SDS011;9161;47.348;9.648;2023-07-29T22:35:28;2.53;;;1.40;;
18072;SDS011;9161;47.348;9.648;2023-07-29T22:40:34;6.60;;;2.27;;
18072;SDS011;9161;47.348;9.648;2023-07-29T22:45:36;3.30;;;2.40;;
18072;SDS011;9161;47.348;9.648;2023-07-29T22:50:39;5.23;;;2.67;;
18072;SDS011;9161;47.348;9.648;2023-07-29T22:55:41;3.50;;;2.73;;
18072;SDS011;9161;47.348;9.648;2023-07-29T23:00:46;4.83;;;2.40;;
18072;SDS011;9161;47.348;9.648;2023-07-29T23:05:50;5.87;;;2.57;;
18072;SDS011;9161;47.348;9.648;2023-07-29T23:10:52;9.33;;;2.87;;
18072;SDS011;9161;47.348;9.648;2023-07-29T23:15:58;3.60;;;2.67;;
18072;SDS011;9161;47.348;9.648;2023-07-29T23:21:02;5.07;;;2.23;;
18072;SDS011;9161;47.348;9.648;2023-07-29T23:26:04;2.43;;;1.70;;
18072;SDS011;9161;47.348;9.648;2023-07-29T23:31:06;3.00;;;1.73;;
18072;SDS011;9161;47.348;9.648;2023-07-29T23:36:09;3.20;;;1.50;;
18072;SDS011;9161;47.348;9.648;2023-07-29T23:41:11;2.27;;;1.30;;
18072;SDS011;9161;47.348;9.648;2023-07-29T23:46:13;4.37;;;1.40;;
18072;SDS011;9161;47.348;9.648;2023-07-29T23:51:17;1.90;;;1.40;;
18072;SDS011;9161;47.348;9.648;2023-07-29T23:56:19;4.93;;;1.70;;
